Check out our new PWSWeather beta!
PWSweather.com
Personal Weather Stations
Station Observations
IONTARIO88
Lincoln, ON L0R

Lincoln, ON L0R

Lat: 43.1763563, Lon: -79.4719525

Elevation: 297

Station Type: Davis Vantage Pro 2 Plus

http://www.beamsvillewx.ca

High Low Average
Temperature 84.6°F29.2°C 66.4°F19.1°C 74.5°F23.6°C
Dew Point 71.2°F21.8°C 60.7°F15.9°C 67.2°F19.6°C
Winds 6.0 mph 9.7 kmh Calm Calm 3.0 mph SW4.8 kmh SW
Wind Gusts 16.0 mph25.7 kmh -- 7.0 mph11.3 kmh
Humidity 92% 58% 79%
Pressure 30.03 in1016.9 mb 29.81 in1009.5 mb -
Precipitation 0.35 in8.9 mm - -
Hour Temp Dew Point Humidity Winds Wind Gusts Pressure Precip Precip Rate Daily Precip Total
12:00 AM 72.7°F22.6°C 68.6°F20.3°C 87% 4.0 mph WSW6.4 kmh WSW 9.0 mph14.5 kmh 29.83 in1010.2 mb 0.17 in4.3 mm 0.00 in0.0 mm 0.17 in4.3 mm
12:15 AM 71.4°F21.9°C 68.3°F20.2°C 90% 3.0 mph SSW4.8 kmh SSW 11.0 mph17.7 kmh 29.82 in1009.8 mb 0.28 in7.1 mm 0.44 in11.2 mm 0.28 in7.1 mm
12:30 AM 70.9°F21.6°C 68.1°F20.1°C 91% Calm Calm 2.0 mph3.2 kmh 29.81 in1009.5 mb 0.29 in7.4 mm 0.04 in1.0 mm 0.31 in7.9 mm
12:45 AM 70.5°F21.4°C 68.1°F20.1°C 92% 1.0 mph S1.6 kmh S 4.0 mph6.4 kmh 29.82 in1009.8 mb 0.31 in7.9 mm 0.08 in2.0 mm 0.34 in8.6 mm
01:00 AM 70.2°F21.2°C 67.7°F19.8°C 92% Calm Calm 4.0 mph6.4 kmh 29.81 in1009.5 mb 0.16 in4.1 mm 0.00 in0.0 mm 0.35 in8.9 mm
01:15 AM 70.3°F21.3°C 67.9°F19.9°C 92% Calm Calm 2.0 mph3.2 kmh 29.81 in1009.5 mb 0.06 in1.5 mm 0.00 in0.0 mm 0.35 in8.9 mm
01:30 AM 70.3°F21.3°C 67.9°F19.9°C 92% 2.0 mph S3.2 kmh S 8.0 mph12.9 kmh 29.82 in1009.8 mb 0.03 in0.8 mm 0.00 in0.0 mm 0.35 in8.9 mm
01:45 AM 70.0°F21.1°C 67.5°F19.7°C 92% 4.0 mph SSW6.4 kmh SSW 11.0 mph17.7 kmh 29.84 in1010.5 mb 0.01 in0.3 mm 0.00 in0.0 mm 0.35 in8.9 mm
02:00 AM 70.0°F21.1°C 67.5°F19.7°C 92% 4.0 mph SSW6.4 kmh SSW 10.0 mph16.1 kmh 29.83 in1010.2 mb 0.00 in0.0 mm 0.00 in0.0 mm 0.35 in8.9 mm
02:15 AM 70.0°F21.1°C 67.5°F19.7°C 92% 4.0 mph S6.4 kmh S 11.0 mph17.7 kmh 29.83 in1010.2 mb 0.01 in0.3 mm 0.04 in1.0 mm 0.35 in8.9 mm
02:30 AM 70.0°F21.1°C 67.5°F19.7°C 92% 5.0 mph S8.0 kmh S 10.0 mph16.1 kmh 29.83 in1010.2 mb 0.01 in0.3 mm 0.00 in0.0 mm 0.35 in8.9 mm
02:45 AM 70.0°F21.1°C 67.5°F19.7°C 92% 5.0 mph SSW8.0 kmh SSW 12.0 mph19.3 kmh 29.83 in1010.2 mb 0.01 in0.3 mm 0.00 in0.0 mm 0.35 in8.9 mm
03:00 AM 70.0°F21.1°C 67.5°F19.7°C 92% 5.0 mph SSW8.0 kmh SSW 12.0 mph19.3 kmh 29.84 in1010.5 mb 0.01 in0.3 mm 0.00 in0.0 mm 0.35 in8.9 mm
03:15 AM 70.0°F21.1°C 67.5°F19.7°C 92% 2.0 mph S3.2 kmh S 8.0 mph12.9 kmh 29.84 in1010.5 mb 0.00 in0.0 mm 0.00 in0.0 mm 0.35 in8.9 mm
03:30 AM 70.0°F21.1°C 67.5°F19.7°C 92% 4.0 mph SSW6.4 kmh SSW 11.0 mph17.7 kmh 29.83 in1010.2 mb 0.00 in0.0 mm 0.00 in0.0 mm 0.35 in8.9 mm
03:45 AM 70.2°F21.2°C 67.7°F19.8°C 92% 4.0 mph SSW6.4 kmh SSW 11.0 mph17.7 kmh 29.83 in1010.2 mb 0.00 in0.0 mm 0.00 in0.0 mm 0.35 in8.9 mm
04:00 AM 70.0°F21.1°C 67.5°F19.7°C 92% 4.0 mph SW6.4 kmh SW 10.0 mph16.1 kmh 29.84 in1010.5 mb 0.00 in0.0 mm 0.00 in0.0 mm 0.35 in8.9 mm
04:15 AM 69.6°F20.9°C 67.2°F19.6°C 92% 4.0 mph SW6.4 kmh SW 8.0 mph12.9 kmh 29.84 in1010.5 mb 0.00 in0.0 mm 0.00 in0.0 mm 0.35 in8.9 mm
04:30 AM 69.4°F20.8°C 66.7°F19.3°C 91% 4.0 mph SW6.4 kmh SW 13.0 mph20.9 kmh 29.84 in1010.5 mb 0.00 in0.0 mm 0.00 in0.0 mm 0.35 in8.9 mm
04:45 AM 69.3°F20.7°C 66.5°F19.2°C 91% 4.0 mph SW6.4 kmh SW 9.0 mph14.5 kmh 29.84 in1010.5 mb 0.00 in0.0 mm 0.00 in0.0 mm 0.35 in8.9 mm
05:00 AM 69.1°F20.6°C 66.3°F19.1°C 91% 3.0 mph SW4.8 kmh SW 7.0 mph11.3 kmh 29.85 in1010.8 mb 0.00 in0.0 mm 0.00 in0.0 mm 0.35 in8.9 mm
05:15 AM 68.7°F20.4°C 66.0°F18.9°C 91% 3.0 mph S4.8 kmh S 9.0 mph14.5 kmh 29.86 in1011.2 mb 0.00 in0.0 mm 0.00 in0.0 mm 0.35 in8.9 mm
05:30 AM 68.5°F20.3°C 66.1°F18.9°C 92% 3.0 mph S4.8 kmh S 7.0 mph11.3 kmh 29.87 in1011.5 mb 0.00 in0.0 mm 0.00 in0.0 mm 0.35 in8.9 mm
05:45 AM 68.4°F20.2°C 65.9°F18.8°C 92% 3.0 mph SSW4.8 kmh SSW 7.0 mph11.3 kmh 29.87 in1011.5 mb 0.00 in0.0 mm 0.00 in0.0 mm 0.35 in8.9 mm
06:00 AM 68.4°F20.2°C 65.9°F18.8°C 92% 2.0 mph S3.2 kmh S 6.0 mph9.7 kmh 29.87 in1011.5 mb 0.00 in0.0 mm 0.00 in0.0 mm 0.35 in8.9 mm
06:15 AM 68.4°F20.2°C 65.9°F18.8°C 92% 2.0 mph S3.2 kmh S 8.0 mph12.9 kmh 29.89 in1012.2 mb 0.00 in0.0 mm 0.00 in0.0 mm 0.35 in8.9 mm
06:30 AM 68.7°F20.4°C 66.3°F19.1°C 92% 2.0 mph S3.2 kmh S 10.0 mph16.1 kmh 29.89 in1012.2 mb 0.00 in0.0 mm 0.00 in0.0 mm 0.35 in8.9 mm
06:45 AM 69.1°F20.6°C 66.7°F19.3°C 92% 2.0 mph S3.2 kmh S 8.0 mph12.9 kmh 29.89 in1012.2 mb 0.00 in0.0 mm 0.00 in0.0 mm 0.35 in8.9 mm
07:00 AM 69.3°F20.7°C 66.8°F19.3°C 92% 1.0 mph S1.6 kmh S 6.0 mph9.7 kmh 29.90 in1012.5 mb 0.00 in0.0 mm 0.00 in0.0 mm 0.35 in8.9 mm
07:15 AM 69.6°F20.9°C 66.9°F19.4°C 91% 3.0 mph S4.8 kmh S 7.0 mph11.3 kmh 29.91 in1012.9 mb 0.00 in0.0 mm 0.00 in0.0 mm 0.35 in8.9 mm
07:30 AM 70.3°F21.3°C 67.6°F19.8°C 91% 2.0 mph SSW3.2 kmh SSW 7.0 mph11.3 kmh 29.92 in1013.2 mb 0.00 in0.0 mm 0.00 in0.0 mm 0.35 in8.9 mm
07:45 AM 71.1°F21.7°C 68.0°F20.0°C 90% 3.0 mph SW4.8 kmh SW 7.0 mph11.3 kmh 29.92 in1013.2 mb 0.00 in0.0 mm 0.00 in0.0 mm 0.35 in8.9 mm
08:00 AM 71.8°F22.1°C 68.4°F20.2°C 89% 3.0 mph SW4.8 kmh SW 8.0 mph12.9 kmh 29.93 in1013.5 mb 0.00 in0.0 mm 0.00 in0.0 mm 0.35 in8.9 mm
08:15 AM 72.5°F22.5°C 68.7°F20.4°C 88% 3.0 mph SW4.8 kmh SW 7.0 mph11.3 kmh 29.93 in1013.5 mb 0.00 in0.0 mm 0.00 in0.0 mm 0.35 in8.9 mm
08:30 AM 73.2°F22.9°C 68.8°F20.4°C 86% 3.0 mph W4.8 kmh W 8.0 mph12.9 kmh 29.93 in1013.5 mb 0.00 in0.0 mm 0.00 in0.0 mm 0.35 in8.9 mm
08:45 AM 74.1°F23.4°C 69.0°F20.6°C 84% 3.0 mph W4.8 kmh W 8.0 mph12.9 kmh 29.93 in1013.5 mb 0.00 in0.0 mm 0.00 in0.0 mm 0.35 in8.9 mm
09:00 AM 74.7°F23.7°C 68.4°F20.2°C 81% 3.0 mph W4.8 kmh W 8.0 mph12.9 kmh 29.94 in1013.9 mb 0.00 in0.0 mm 0.00 in0.0 mm 0.35 in8.9 mm
09:15 AM 75.2°F24.0°C 69.0°F20.6°C 81% 4.0 mph W6.4 kmh W 8.0 mph12.9 kmh 29.95 in1014.2 mb 0.00 in0.0 mm 0.00 in0.0 mm 0.35 in8.9 mm
09:30 AM 75.9°F24.4°C 69.3°F20.7°C 80% 5.0 mph W8.0 kmh W 11.0 mph17.7 kmh 29.95 in1014.2 mb 0.00 in0.0 mm 0.00 in0.0 mm 0.35 in8.9 mm
09:45 AM 75.9°F24.4°C 68.6°F20.3°C 78% 5.0 mph W8.0 kmh W 10.0 mph16.1 kmh 29.95 in1014.2 mb 0.00 in0.0 mm 0.00 in0.0 mm 0.35 in8.9 mm
10:00 AM 76.6°F24.8°C 68.1°F20.1°C 75% 5.0 mph WSW8.0 kmh WSW 11.0 mph17.7 kmh 29.96 in1014.6 mb 0.00 in0.0 mm 0.00 in0.0 mm 0.35 in8.9 mm
10:15 AM 77.7°F25.4°C 68.4°F20.2°C 73% 5.0 mph WSW8.0 kmh WSW 9.0 mph14.5 kmh 29.96 in1014.6 mb 0.00 in0.0 mm 0.00 in0.0 mm 0.35 in8.9 mm
10:30 AM 78.6°F25.9°C 68.4°F20.2°C 71% 4.0 mph SW6.4 kmh SW 11.0 mph17.7 kmh 29.96 in1014.6 mb 0.00 in0.0 mm 0.00 in0.0 mm 0.35 in8.9 mm
10:45 AM 79.0°F26.1°C 68.8°F20.4°C 71% 4.0 mph WSW6.4 kmh WSW 9.0 mph14.5 kmh 29.96 in1014.6 mb 0.00 in0.0 mm 0.00 in0.0 mm 0.35 in8.9 mm
11:00 AM 79.9°F26.6°C 69.2°F20.7°C 70% 4.0 mph WSW6.4 kmh WSW 9.0 mph14.5 kmh 29.96 in1014.6 mb 0.00 in0.0 mm 0.00 in0.0 mm 0.35 in8.9 mm
11:15 AM 80.4°F26.9°C 68.5°F20.3°C 67% 4.0 mph SSW6.4 kmh SSW 9.0 mph14.5 kmh 29.96 in1014.6 mb 0.00 in0.0 mm 0.00 in0.0 mm 0.35 in8.9 mm
11:30 AM 80.8°F27.1°C 67.9°F19.9°C 65% 4.0 mph SW6.4 kmh SW 10.0 mph16.1 kmh 29.96 in1014.6 mb 0.00 in0.0 mm 0.00 in0.0 mm 0.35 in8.9 mm
11:45 AM 79.9°F26.6°C 67.9°F19.9°C 67% 5.0 mph WSW8.0 kmh WSW 10.0 mph16.1 kmh 29.96 in1014.6 mb 0.00 in0.0 mm 0.00 in0.0 mm 0.35 in8.9 mm
12:00 PM 79.9°F26.6°C 67.9°F19.9°C 67% 4.0 mph WSW6.4 kmh WSW 8.0 mph12.9 kmh 29.96 in1014.6 mb 0.00 in0.0 mm 0.00 in0.0 mm 0.35 in8.9 mm
12:15 PM 78.8°F26.0°C 68.6°F20.3°C 71% 3.0 mph NW4.8 kmh NW 7.0 mph11.3 kmh 29.96 in1014.6 mb 0.00 in0.0 mm 0.00 in0.0 mm 0.35 in8.9 mm
12:30 PM 78.1°F25.6°C 68.7°F20.4°C 73% 3.0 mph NW4.8 kmh NW 8.0 mph12.9 kmh 29.96 in1014.6 mb 0.00 in0.0 mm 0.00 in0.0 mm 0.35 in8.9 mm
12:45 PM 79.5°F26.4°C 68.5°F20.3°C 69% 3.0 mph NW4.8 kmh NW 6.0 mph9.7 kmh 29.96 in1014.6 mb 0.00 in0.0 mm 0.00 in0.0 mm 0.35 in8.9 mm
01:00 PM 81.7°F27.6°C 68.3°F20.2°C 64% 2.0 mph NW3.2 kmh NW 6.0 mph9.7 kmh 29.95 in1014.2 mb 0.00 in0.0 mm 0.00 in0.0 mm 0.35 in8.9 mm
01:15 PM 82.9°F28.3°C 69.0°F20.6°C 63% 3.0 mph W4.8 kmh W 9.0 mph14.5 kmh 29.95 in1014.2 mb 0.00 in0.0 mm 0.00 in0.0 mm 0.35 in8.9 mm
01:30 PM 83.5°F28.6°C 68.6°F20.3°C 61% 2.0 mph WNW3.2 kmh WNW 8.0 mph12.9 kmh 29.95 in1014.2 mb 0.00 in0.0 mm 0.00 in0.0 mm 0.35 in8.9 mm
01:45 PM 81.1°F27.3°C 68.3°F20.2°C 65% 2.0 mph NW3.2 kmh NW 6.0 mph9.7 kmh 29.96 in1014.6 mb 0.00 in0.0 mm 0.00 in0.0 mm 0.35 in8.9 mm
02:00 PM 80.2°F26.8°C 68.3°F20.2°C 67% 1.0 mph NW1.6 kmh NW 3.0 mph4.8 kmh 29.95 in1014.2 mb 0.00 in0.0 mm 0.00 in0.0 mm 0.35 in8.9 mm
02:15 PM 80.4°F26.9°C 67.6°F19.8°C 65% 2.0 mph NW3.2 kmh NW 4.0 mph6.4 kmh 29.95 in1014.2 mb 0.00 in0.0 mm 0.00 in0.0 mm 0.35 in8.9 mm
02:30 PM 80.1°F26.7°C 68.1°F20.1°C 67% 1.0 mph NW1.6 kmh NW 4.0 mph6.4 kmh 29.95 in1014.2 mb 0.00 in0.0 mm 0.00 in0.0 mm 0.35 in8.9 mm
02:45 PM 82.0°F27.8°C 67.3°F19.6°C 61% 2.0 mph NW3.2 kmh NW 5.0 mph8.0 kmh 29.95 in1014.2 mb 0.00 in0.0 mm 0.00 in0.0 mm 0.35 in8.9 mm
03:00 PM 81.3°F27.4°C 65.1°F18.4°C 58% 3.0 mph NW4.8 kmh NW 7.0 mph11.3 kmh 29.95 in1014.2 mb 0.00 in0.0 mm 0.00 in0.0 mm 0.35 in8.9 mm
03:15 PM 83.5°F28.6°C 68.6°F20.3°C 61% 3.0 mph NW4.8 kmh NW 7.0 mph11.3 kmh 29.95 in1014.2 mb 0.00 in0.0 mm 0.00 in0.0 mm 0.35 in8.9 mm
03:30 PM 84.6°F29.2°C 70.6°F21.4°C 63% 4.0 mph SW6.4 kmh SW 13.0 mph20.9 kmh 29.95 in1014.2 mb 0.00 in0.0 mm 0.00 in0.0 mm 0.35 in8.9 mm
03:45 PM 83.1°F28.4°C 70.6°F21.4°C 66% 3.0 mph S4.8 kmh S 10.0 mph16.1 kmh 29.95 in1014.2 mb 0.00 in0.0 mm 0.00 in0.0 mm 0.35 in8.9 mm
04:00 PM 82.4°F28.0°C 71.2°F21.8°C 69% 4.0 mph S6.4 kmh S 15.0 mph24.1 kmh 29.95 in1014.2 mb 0.00 in0.0 mm 0.00 in0.0 mm 0.35 in8.9 mm
04:15 PM 82.9°F28.3°C 70.4°F21.3°C 66% 5.0 mph SSW8.0 kmh SSW 16.0 mph25.7 kmh 29.95 in1014.2 mb 0.00 in0.0 mm 0.00 in0.0 mm 0.35 in8.9 mm
04:30 PM 82.8°F28.2°C 70.2°F21.2°C 66% 6.0 mph SW9.7 kmh SW 15.0 mph24.1 kmh 29.94 in1013.9 mb 0.00 in0.0 mm 0.00 in0.0 mm 0.35 in8.9 mm
04:45 PM 82.0°F27.8°C 69.6°F20.9°C 66% 6.0 mph SW9.7 kmh SW 12.0 mph19.3 kmh 29.95 in1014.2 mb 0.00 in0.0 mm 0.00 in0.0 mm 0.35 in8.9 mm
05:00 PM 81.1°F27.3°C 69.1°F20.6°C 67% 5.0 mph SSW8.0 kmh SSW 12.0 mph19.3 kmh 29.95 in1014.2 mb 0.00 in0.0 mm 0.00 in0.0 mm 0.35 in8.9 mm
05:15 PM 80.8°F27.1°C 69.2°F20.7°C 68% 5.0 mph SSW8.0 kmh SSW 13.0 mph20.9 kmh 29.95 in1014.2 mb 0.00 in0.0 mm 0.00 in0.0 mm 0.35 in8.9 mm
05:30 PM 80.4°F26.9°C 69.3°F20.7°C 69% 4.0 mph SSW6.4 kmh SSW 10.0 mph16.1 kmh 29.95 in1014.2 mb 0.00 in0.0 mm 0.00 in0.0 mm 0.35 in8.9 mm
05:45 PM 79.7°F26.5°C 69.0°F20.6°C 70% 4.0 mph SSW6.4 kmh SSW 9.0 mph14.5 kmh 29.94 in1013.9 mb 0.00 in0.0 mm 0.00 in0.0 mm 0.35 in8.9 mm
06:00 PM 79.3°F26.3°C 68.7°F20.4°C 70% 5.0 mph S8.0 kmh S 11.0 mph17.7 kmh 29.95 in1014.2 mb 0.00 in0.0 mm 0.00 in0.0 mm 0.35 in8.9 mm
06:15 PM 78.6°F25.9°C 68.8°F20.4°C 72% 4.0 mph S6.4 kmh S 11.0 mph17.7 kmh 29.95 in1014.2 mb 0.00 in0.0 mm 0.00 in0.0 mm 0.35 in8.9 mm
06:30 PM 78.3°F25.7°C 68.9°F20.5°C 73% 4.0 mph SSW6.4 kmh SSW 9.0 mph14.5 kmh 29.95 in1014.2 mb 0.00 in0.0 mm 0.00 in0.0 mm 0.35 in8.9 mm
06:45 PM 78.1°F25.6°C 69.1°F20.6°C 74% 3.0 mph SW4.8 kmh SW 7.0 mph11.3 kmh 29.95 in1014.2 mb 0.00 in0.0 mm 0.00 in0.0 mm 0.35 in8.9 mm
07:00 PM 77.5°F25.3°C 69.0°F20.6°C 75% 1.0 mph SSW1.6 kmh SSW 4.0 mph6.4 kmh 29.95 in1014.2 mb 0.00 in0.0 mm 0.00 in0.0 mm 0.35 in8.9 mm
07:15 PM 76.8°F24.9°C 69.1°F20.6°C 77% 1.0 mph SSW1.6 kmh SSW 4.0 mph6.4 kmh 29.95 in1014.2 mb 0.00 in0.0 mm 0.00 in0.0 mm 0.35 in8.9 mm
07:30 PM 75.7°F24.3°C 68.0°F20.0°C 77% 1.0 mph SSW1.6 kmh SSW 3.0 mph4.8 kmh 29.96 in1014.6 mb 0.00 in0.0 mm 0.00 in0.0 mm 0.35 in8.9 mm
07:45 PM 74.8°F23.8°C 66.0°F18.9°C 74% 1.0 mph SSW1.6 kmh SSW 3.0 mph4.8 kmh 29.96 in1014.6 mb 0.00 in0.0 mm 0.00 in0.0 mm 0.35 in8.9 mm
08:00 PM 73.9°F23.3°C 64.3°F17.9°C 72% 1.0 mph SSW1.6 kmh SSW 3.0 mph4.8 kmh 29.96 in1014.6 mb 0.00 in0.0 mm 0.00 in0.0 mm 0.35 in8.9 mm
08:15 PM 73.4°F23.0°C 64.2°F17.9°C 73% Calm Calm 2.0 mph3.2 kmh 29.97 in1014.9 mb 0.00 in0.0 mm 0.00 in0.0 mm 0.35 in8.9 mm
08:30 PM 73.0°F22.8°C 64.6°F18.1°C 75% Calm Calm 2.0 mph3.2 kmh 29.98 in1015.2 mb 0.00 in0.0 mm 0.00 in0.0 mm 0.35 in8.9 mm
08:45 PM 72.3°F22.4°C 63.9°F17.7°C 75% Calm Calm 3.0 mph4.8 kmh 29.98 in1015.2 mb 0.00 in0.0 mm 0.00 in0.0 mm 0.35 in8.9 mm
09:00 PM 72.0°F22.2°C 64.4°F18.0°C 77% 1.0 mph SSW1.6 kmh SSW 4.0 mph6.4 kmh 29.99 in1015.6 mb 0.00 in0.0 mm 0.00 in0.0 mm 0.35 in8.9 mm
09:15 PM 71.4°F21.9°C 63.5°F17.5°C 76% Calm Calm 1.0 mph1.6 kmh 29.99 in1015.6 mb 0.00 in0.0 mm 0.00 in0.0 mm 0.35 in8.9 mm
09:30 PM 70.9°F21.6°C 63.3°F17.4°C 77% Calm Calm -- 30.00 in1015.9 mb 0.00 in0.0 mm 0.00 in0.0 mm 0.35 in8.9 mm
09:45 PM 70.3°F21.3°C 62.8°F17.1°C 77% Calm Calm -- 30.01 in1016.3 mb 0.00 in0.0 mm 0.00 in0.0 mm 0.35 in8.9 mm
10:00 PM 70.0°F21.1°C 62.8°F17.1°C 78% Calm Calm 1.0 mph1.6 kmh 30.01 in1016.3 mb 0.00 in0.0 mm 0.00 in0.0 mm 0.35 in8.9 mm
10:15 PM 69.6°F20.9°C 62.5°F16.9°C 78% Calm Calm 3.0 mph4.8 kmh 30.01 in1016.3 mb 0.00 in0.0 mm 0.00 in0.0 mm 0.35 in8.9 mm
10:30 PM 69.1°F20.6°C 61.9°F16.6°C 78% Calm Calm 2.0 mph3.2 kmh 30.02 in1016.6 mb 0.00 in0.0 mm 0.00 in0.0 mm 0.35 in8.9 mm
10:45 PM 68.9°F20.5°C 62.1°F16.7°C 79% Calm Calm -- 30.02 in1016.6 mb 0.00 in0.0 mm 0.00 in0.0 mm 0.35 in8.9 mm
11:00 PM 68.4°F20.2°C 61.9°F16.6°C 80% Calm Calm -- 30.02 in1016.6 mb 0.00 in0.0 mm 0.00 in0.0 mm 0.32 in8.1 mm
11:15 PM 67.6°F19.8°C 61.6°F16.4°C 81% Calm Calm -- 30.02 in1016.6 mb 0.00 in0.0 mm 0.00 in0.0 mm 0.32 in8.1 mm
11:30 PM 66.7°F19.3°C 61.1°F16.2°C 82% Calm Calm -- 30.03 in1016.9 mb 0.00 in0.0 mm 0.00 in0.0 mm 0.32 in8.1 mm
11:45 PM 66.4°F19.1°C 60.7°F15.9°C 82% Calm Calm -- 30.02 in1016.6 mb 0.00 in0.0 mm 0.00 in0.0 mm 0.32 in8.1 mm